sensor_id;sensor_type;location;lat;lon;timestamp;pressure;altitude;pressure_sealevel;temperature;humidity
64354;BME280;50681;53.334;-6.536;2022-08-19T00:00:09;100515.13;;;13.41;100.00
64354;BME280;50681;53.334;-6.536;2022-08-19T00:02:35;100523.06;;;13.37;100.00
64354;BME280;50681;53.334;-6.536;2022-08-19T00:05:02;100517.78;;;13.32;100.00
64354;BME280;50681;53.334;-6.536;2022-08-19T00:07:27;100510.53;;;13.18;100.00
64354;BME280;50681;53.334;-6.536;2022-08-19T00:09:53;100517.59;;;13.28;100.00
64354;BME280;50681;53.334;-6.536;2022-08-19T00:12:18;100521.88;;;13.20;100.00
64354;BME280;50681;53.334;-6.536;2022-08-19T00:14:44;100522.78;;;13.16;100.00
64354;BME280;50681;53.334;-6.536;2022-08-19T00:17:10;100518.91;;;13.08;100.00
64354;BME280;50681;53.334;-6.536;2022-08-19T00:19:36;100521.91;;;13.06;100.00
64354;BME280;50681;53.334;-6.536;2022-08-19T00:22:02;100536.94;;;13.13;100.00
64354;BME280;50681;53.334;-6.536;2022-08-19T00:24:28;100515.94;;;12.96;100.00
64354;BME280;50681;53.334;-6.536;2022-08-19T00:26:55;100529.53;;;13.04;100.00
64354;BME280;50681;53.334;-6.536;2022-08-19T00:29:22;100537.50;;;12.87;100.00
64354;BME280;50681;53.334;-6.536;2022-08-19T00:31:48;100540.09;;;12.92;100.00
64354;BME280;50681;53.334;-6.536;2022-08-19T00:34:15;100543.44;;;12.89;100.00
64354;BME280;50681;53.334;-6.536;2022-08-19T00:36:41;100530.09;;;12.78;100.00
64354;BME280;50681;53.334;-6.536;2022-08-19T00:39:07;100531.81;;;12.74;100.00
64354;BME280;50681;53.334;-6.536;2022-08-19T00:41:33;100554.38;;;12.84;100.00
64354;BME280;50681;53.334;-6.536;2022-08-19T00:44:14;100550.19;;;12.77;100.00
64354;BME280;50681;53.334;-6.536;2022-08-19T00:46:43;100553.09;;;12.81;100.00
64354;BME280;50681;53.334;-6.536;2022-08-19T00:51:57;100560.06;;;12.96;100.00
64354;BME280;50681;53.334;-6.536;2022-08-19T00:54:25;100543.63;;;12.92;100.00
64354;BME280;50681;53.334;-6.536;2022-08-19T00:56:52;100563.56;;;13.11;100.00
64354;BME280;50681;53.334;-6.536;2022-08-19T00:59:19;100543.78;;;13.10;100.00
64354;BME280;50681;53.334;-6.536;2022-08-19T01:01:45;100559.00;;;13.20;100.00
64354;BME280;50681;53.334;-6.536;2022-08-19T01:04:12;100539.03;;;13.16;100.00
64354;BME280;50681;53.334;-6.536;2022-08-19T01:06:39;100516.97;;;13.08;100.00
64354;BME280;50681;53.334;-6.536;2022-08-19T01:09:07;100547.91;;;13.30;100.00
64354;BME280;50681;53.334;-6.536;2022-08-19T01:11:34;100550.69;;;13.39;100.00
64354;BME280;50681;53.334;-6.536;2022-08-19T01:14:00;100548.69;;;13.45;100.00
64354;BME280;50681;53.334;-6.536;2022-08-19T01:16:27;100544.59;;;13.33;100.00
64354;BME280;50681;53.334;-6.536;2022-08-19T01:18:54;100547.44;;;13.28;100.00
64354;BME280;50681;53.334;-6.536;2022-08-19T01:21:42;100533.94;;;13.14;100.00
64354;BME280;50681;53.334;-6.536;2022-08-19T01:24:10;100548.78;;;13.17;100.00
64354;BME280;50681;53.334;-6.536;2022-08-19T01:26:41;100523.50;;;13.07;100.00
64354;BME280;50681;53.334;-6.536;2022-08-19T01:29:08;100534.56;;;13.11;100.00
64354;BME280;50681;53.334;-6.536;2022-08-19T01:31:35;100538.53;;;13.14;100.00
64354;BME280;50681;53.334;-6.536;2022-08-19T01:34:01;100553.97;;;13.27;100.00
64354;BME280;50681;53.334;-6.536;2022-08-19T01:36:35;100550.94;;;13.29;100.00
64354;BME280;50681;53.334;-6.536;2022-08-19T01:39:06;100566.78;;;13.35;100.00
64354;BME280;50681;53.334;-6.536;2022-08-19T01:41:32;100547.38;;;13.19;100.00
64354;BME280;50681;53.334;-6.536;2022-08-19T01:43:57;100540.41;;;13.27;100.00
64354;BME280;50681;53.334;-6.536;2022-08-19T01:46:23;100555.72;;;13.46;100.00
64354;BME280;50681;53.334;-6.536;2022-08-19T01:48:49;100537.56;;;13.32;100.00
64354;BME280;50681;53.334;-6.536;2022-08-19T01:51:15;100571.53;;;13.52;100.00
64354;BME280;50681;53.334;-6.536;2022-08-19T01:53:40;100551.50;;;13.40;100.00
64354;BME280;50681;53.334;-6.536;2022-08-19T01:56:07;100567.84;;;13.48;100.00
64354;BME280;50681;53.334;-6.536;2022-08-19T01:58:45;100564.13;;;13.21;100.00
64354;BME280;50681;53.334;-6.536;2022-08-19T02:01:12;100576.03;;;13.34;100.00
64354;BME280;50681;53.334;-6.536;2022-08-19T02:03:39;100544.53;;;13.25;100.00
64354;BME280;50681;53.334;-6.536;2022-08-19T02:06:04;100559.25;;;13.32;100.00
64354;BME280;50681;53.334;-6.536;2022-08-19T02:08:33;100565.41;;;13.24;100.00
64354;BME280;50681;53.334;-6.536;2022-08-19T02:10:59;100554.75;;;13.05;100.00
64354;BME280;50681;53.334;-6.536;2022-08-19T02:13:26;100569.69;;;13.02;100.00
64354;BME280;50681;53.334;-6.536;2022-08-19T02:15:51;100554.88;;;12.86;100.00
64354;BME280;50681;53.334;-6.536;2022-08-19T02:18:17;100571.34;;;12.89;100.00
64354;BME280;50681;53.334;-6.536;2022-08-19T02:20:43;100579.75;;;12.88;100.00
64354;BME280;50681;53.334;-6.536;2022-08-19T02:23:11;100561.72;;;12.83;100.00
64354;BME280;50681;53.334;-6.536;2022-08-19T02:25:37;100577.53;;;13.04;100.00
64354;BME280;50681;53.334;-6.536;2022-08-19T02:28:03;100566.38;;;13.05;100.00
64354;BME280;50681;53.334;-6.536;2022-08-19T02:30:29;100581.50;;;13.20;100.00
64354;BME280;50681;53.334;-6.536;2022-08-19T02:32:54;100575.81;;;13.31;100.00
64354;BME280;50681;53.334;-6.536;2022-08-19T02:35:20;100556.00;;;13.21;100.00
64354;BME280;50681;53.334;-6.536;2022-08-19T02:37:46;100556.72;;;13.36;100.00
64354;BME280;50681;53.334;-6.536;2022-08-19T02:40:31;100540.53;;;13.22;100.00
64354;BME280;50681;53.334;-6.536;2022-08-19T02:43:01;100560.53;;;13.35;100.00
64354;BME280;50681;53.334;-6.536;2022-08-19T02:45:35;100551.88;;;13.24;100.00
64354;BME280;50681;53.334;-6.536;2022-08-19T02:48:01;100549.50;;;13.08;100.00
64354;BME280;50681;53.334;-6.536;2022-08-19T02:50:27;100544.41;;;12.93;100.00
64354;BME280;50681;53.334;-6.536;2022-08-19T02:52:52;100554.88;;;12.86;100.00
64354;BME280;50681;53.334;-6.536;2022-08-19T02:55:18;100564.22;;;12.79;100.00
64354;BME280;50681;53.334;-6.536;2022-08-19T02:57:43;100553.72;;;12.64;100.00
64354;BME280;50681;53.334;-6.536;2022-08-19T03:00:09;100562.34;;;12.52;100.00
64354;BME280;50681;53.334;-6.536;2022-08-19T03:02:39;100554.53;;;12.50;100.00
64354;BME280;50681;53.334;-6.536;2022-08-19T03:05:05;100553.13;;;12.39;100.00
64354;BME280;50681;53.334;-6.536;2022-08-19T03:07:31;100564.97;;;12.43;100.00
64354;BME280;50681;53.334;-6.536;2022-08-19T03:09:57;100562.75;;;12.45;100.00
64354;BME280;50681;53.334;-6.536;2022-08-19T03:12:22;100563.25;;;12.47;100.00
64354;BME280;50681;53.334;-6.536;2022-08-19T03:14:48;100551.91;;;12.45;100.00
64354;BME280;50681;53.334;-6.536;2022-08-19T03:17:13;100570.28;;;12.48;100.00
64354;BME280;50681;53.334;-6.536;2022-08-19T03:19:39;100576.69;;;12.53;100.00
64354;BME280;50681;53.334;-6.536;2022-08-19T03:22:04;100559.34;;;12.40;100.00
64354;BME280;50681;53.334;-6.536;2022-08-19T03:24:30;100561.84;;;12.36;100.00
64354;BME280;50681;53.334;-6.536;2022-08-19T03:26:56;100561.16;;;12.30;100.00
64354;BME280;50681;53.334;-6.536;2022-08-19T03:29:24;100575.88;;;12.38;100.00
64354;BME280;50681;53.334;-6.536;2022-08-19T03:31:49;100559.97;;;12.37;100.00
64354;BME280;50681;53.334;-6.536;2022-08-19T03:34:23;100559.34;;;12.54;100.00
64354;BME280;50681;53.334;-6.536;2022-08-19T03:36:54;100567.16;;;12.69;100.00
64354;BME280;50681;53.334;-6.536;2022-08-19T03:39:21;100567.25;;;12.78;100.00
64354;BME280;50681;53.334;-6.536;2022-08-19T03:41:48;100581.47;;;12.98;100.00
64354;BME280;50681;53.334;-6.536;2022-08-19T03:44:18;100567.91;;;12.98;100.00
64354;BME280;50681;53.334;-6.536;2022-08-19T03:46:51;100580.44;;;13.07;100.00
64354;BME280;50681;53.334;-6.536;2022-08-19T03:49:18;100563.88;;;12.95;100.00
64354;BME280;50681;53.334;-6.536;2022-08-19T03:51:45;100563.88;;;12.95;100.00
64354;BME280;50681;53.334;-6.536;2022-08-19T03:54:12;100574.50;;;13.05;100.00
64354;BME280;50681;53.334;-6.536;2022-08-19T03:56:40;100574.50;;;13.05;100.00
64354;BME280;50681;53.334;-6.536;2022-08-19T03:59:09;100564.47;;;13.06;100.00
64354;BME280;50681;53.334;-6.536;2022-08-19T04:01:36;100569.53;;;12.99;100.00
64354;BME280;50681;53.334;-6.536;2022-08-19T04:04:02;100587.28;;;13.05;100.00
64354;BME280;50681;53.334;-6.536;2022-08-19T04:06:30;100561.88;;;13.01;100.00
64354;BME280;50681;53.334;-6.536;2022-08-19T04:08:58;100568.69;;;12.98;100.00
64354;BME280;50681;53.334;-6.536;2022-08-19T04:11:26;100571.69;;;13.11;100.00
64354;BME280;50681;53.334;-6.536;2022-08-19T04:13:53;100579.41;;;13.17;100.00
64354;BME280;50681;53.334;-6.536;2022-08-19T04:16:19;100577.22;;;13.05;100.00
64354;BME280;50681;53.334;-6.536;2022-08-19T04:18:45;100575.44;;;13.01;100.00
64354;BME280;50681;53.334;-6.536;2022-08-19T04:21:19;100579.25;;;12.86;100.00
64354;BME280;50681;53.334;-6.536;2022-08-19T04:23:45;100585.41;;;12.77;100.00
64354;BME280;50681;53.334;-6.536;2022-08-19T04:26:16;100569.66;;;12.52;100.00
64354;BME280;50681;53.334;-6.536;2022-08-19T04:28:43;100579.00;;;12.45;100.00
64354;BME280;50681;53.334;-6.536;2022-08-19T04:31:15;100557.81;;;12.19;100.00
64354;BME280;50681;53.334;-6.536;2022-08-19T04:33:41;100563.25;;;12.19;100.00
64354;BME280;50681;53.334;-6.536;2022-08-19T04:36:06;100581.09;;;12.20;100.00
64354;BME280;50681;53.334;-6.536;2022-08-19T04:38:32;100573.47;;;12.09;100.00
64354;BME280;50681;53.334;-6.536;2022-08-19T04:40:58;100566.72;;;12.06;100.00
64354;BME280;50681;53.334;-6.536;2022-08-19T04:43:44;100577.88;;;12.18;100.00
64354;BME280;50681;53.334;-6.536;2022-08-19T04:46:12;100590.63;;;12.32;100.00
64354;BME280;50681;53.334;-6.536;2022-08-19T04:48:38;100567.78;;;12.24;100.00
64354;BME280;50681;53.334;-6.536;2022-08-19T04:51:09;100556.53;;;12.31;100.00
64354;BME280;50681;53.334;-6.536;2022-08-19T04:53:37;100569.78;;;12.46;100.00
64354;BME280;50681;53.334;-6.536;2022-08-19T04:56:12;100576.69;;;12.53;100.00
64354;BME280;50681;53.334;-6.536;2022-08-19T04:58:39;100564.75;;;12.54;100.00
64354;BME280;50681;53.334;-6.536;2022-08-19T05:01:06;100570.56;;;12.61;100.00
64354;BME280;50681;53.334;-6.536;2022-08-19T05:03:32;100565.66;;;12.63;100.00
64354;BME280;50681;53.334;-6.536;2022-08-19T05:06:03;100598.66;;;12.65;100.00
64354;BME280;50681;53.334;-6.536;2022-08-19T05:08:29;100602.38;;;12.55;100.00
64354;BME280;50681;53.334;-6.536;2022-08-19T05:10:55;100596.75;;;12.38;100.00
64354;BME280;50681;53.334;-6.536;2022-08-19T05:13:22;100591.13;;;12.20;100.00
64354;BME280;50681;53.334;-6.536;2022-08-19T05:15:56;100587.41;;;12.16;100.00
64354;BME280;50681;53.334;-6.536;2022-08-19T05:18:22;100595.72;;;12.19;100.00
64354;BME280;50681;53.334;-6.536;2022-08-19T05:21:14;100588.88;;;12.08;100.00
64354;BME280;50681;53.334;-6.536;2022-08-19T05:23:58;100576.59;;;11.97;100.00
64354;BME280;50681;53.334;-6.536;2022-08-19T05:26:25;100585.53;;;11.97;100.00
64354;BME280;50681;53.334;-6.536;2022-08-19T05:28:54;100597.31;;;12.07;100.00
64354;BME280;50681;53.334;-6.536;2022-08-19T05:31:19;100594.38;;;12.03;100.00
64354;BME280;50681;53.334;-6.536;2022-08-19T05:33:45;100589.94;;;11.93;100.00
64354;BME280;50681;53.334;-6.536;2022-08-19T05:36:11;100606.03;;;12.03;100.00
64354;BME280;50681;53.334;-6.536;2022-08-19T05:38:36;100589.13;;;11.93;100.00
64354;BME280;50681;53.334;-6.536;2022-08-19T05:41:14;100590.72;;;11.94;100.00
64354;BME280;50681;53.334;-6.536;2022-08-19T05:43:40;100598.25;;;11.97;100.00
64354;BME280;50681;53.334;-6.536;2022-08-19T05:46:07;100595.56;;;11.97;100.00
64354;BME280;50681;53.334;-6.536;2022-08-19T05:48:34;100620.19;;;12.14;100.00
64354;BME280;50681;53.334;-6.536;2022-08-19T05:51:07;100611.88;;;12.25;100.00
64354;BME280;50681;53.334;-6.536;2022-08-19T05:53:33;100607.38;;;12.34;100.00
64354;BME280;50681;53.334;-6.536;2022-08-19T05:56:07;100602.78;;;12.48;100.00
64354;BME280;50681;53.334;-6.536;2022-08-19T05:58:35;100601.25;;;12.70;100.00
64354;BME280;50681;53.334;-6.536;2022-08-19T06:01:00;100615.00;;;12.88;100.00
64354;BME280;50681;53.334;-6.536;2022-08-19T06:03:33;100625.78;;;13.16;100.00
64354;BME280;50681;53.334;-6.536;2022-08-19T06:05:59;100628.09;;;13.22;100.00
64354;BME280;50681;53.334;-6.536;2022-08-19T06:08:26;100631.91;;;13.21;100.00
64354;BME280;50681;53.334;-6.536;2022-08-19T06:10:52;100633.91;;;13.16;100.00
64354;BME280;50681;53.334;-6.536;2022-08-19T06:13:17;100646.44;;;13.26;100.00
64354;BME280;50681;53.334;-6.536;2022-08-19T06:15:45;100636.47;;;13.12;100.00
64354;BME280;50681;53.334;-6.536;2022-08-19T06:18:13;100644.59;;;13.12;100.00
64354;BME280;50681;53.334;-6.536;2022-08-19T06:20:39;100648.63;;;13.01;100.00
64354;BME280;50681;53.334;-6.536;2022-08-19T06:23:04;100634.56;;;12.85;100.00
64354;BME280;50681;53.334;-6.536;2022-08-19T06:25:30;100635.28;;;12.90;100.00
64354;BME280;50681;53.334;-6.536;2022-08-19T06:27:55;100638.38;;;12.98;100.00
64354;BME280;50681;53.334;-6.536;2022-08-19T06:30:21;100642.00;;;12.93;100.00
64354;BME280;50681;53.334;-6.536;2022-08-19T06:32:46;100624.34;;;12.96;100.00
64354;BME280;50681;53.334;-6.536;2022-08-19T06:35:12;100615.38;;;12.95;100.00
64354;BME280;50681;53.334;-6.536;2022-08-19T06:37:39;100633.34;;;13.05;100.00
64354;BME280;50681;53.334;-6.536;2022-08-19T06:40:05;100627.53;;;12.98;100.00
64354;BME280;50681;53.334;-6.536;2022-08-19T06:42:34;100647.78;;;13.14;100.00
64354;BME280;50681;53.334;-6.536;2022-08-19T06:45:02;100646.38;;;13.17;100.00
64354;BME280;50681;53.334;-6.536;2022-08-19T06:47:29;100648.75;;;13.32;100.00
64354;BME280;50681;53.334;-6.536;2022-08-19T06:49:59;100645.22;;;13.32;100.00
64354;BME280;50681;53.334;-6.536;2022-08-19T06:52:30;100633.75;;;13.35;100.00
64354;BME280;50681;53.334;-6.536;2022-08-19T06:54:57;100640.44;;;13.65;100.00
64354;BME280;50681;53.334;-6.536;2022-08-19T06:57:24;100649.81;;;14.05;100.00
64354;BME280;50681;53.334;-6.536;2022-08-19T06:59:49;100650.88;;;14.26;100.00
64354;BME280;50681;53.334;-6.536;2022-08-19T07:02:16;100647.63;;;14.47;100.00
64354;BME280;50681;53.334;-6.536;2022-08-19T07:04:41;100679.34;;;14.61;100.00
64354;BME280;50681;53.334;-6.536;2022-08-19T07:07:09;100673.91;;;14.61;100.00
64354;BME280;50681;53.334;-6.536;2022-08-19T07:09:39;100666.16;;;14.45;100.00
64354;BME280;50681;53.334;-6.536;2022-08-19T07:12:06;100671.13;;;14.52;100.00
64354;BME280;50681;53.334;-6.536;2022-08-19T07:14:33;100664.75;;;14.88;100.00
64354;BME280;50681;53.334;-6.536;2022-08-19T07:17:03;100668.63;;;14.96;100.00
64354;BME280;50681;53.334;-6.536;2022-08-19T07:19:28;100658.84;;;15.04;100.00
64354;BME280;50681;53.334;-6.536;2022-08-19T07:21:54;100661.13;;;15.19;100.00
64354;BME280;50681;53.334;-6.536;2022-08-19T07:24:23;100655.22;;;15.08;100.00
64354;BME280;50681;53.334;-6.536;2022-08-19T07:26:50;100657.25;;;15.03;100.00
64354;BME280;50681;53.334;-6.536;2022-08-19T07:29:16;100652.63;;;15.03;100.00
64354;BME280;50681;53.334;-6.536;2022-08-19T07:31:43;100671.63;;;14.94;100.00
64354;BME280;50681;53.334;-6.536;2022-08-19T07:34:10;100654.38;;;14.59;100.00
64354;BME280;50681;53.334;-6.536;2022-08-19T07:36:38;100673.56;;;14.62;100.00
64354;BME280;50681;53.334;-6.536;2022-08-19T07:39:12;100648.56;;;14.43;100.00
64354;BME280;50681;53.334;-6.536;2022-08-19T07:41:38;100678.34;;;14.57;100.00
64354;BME280;50681;53.334;-6.536;2022-08-19T07:44:06;100674.44;;;14.40;100.00
64354;BME280;50681;53.334;-6.536;2022-08-19T07:46:34;100670.88;;;14.31;100.00
64354;BME280;50681;53.334;-6.536;2022-08-19T07:49:01;100689.13;;;14.39;100.00
64354;BME280;50681;53.334;-6.536;2022-08-19T07:51:27;100687.28;;;14.48;100.00
64354;BME280;50681;53.334;-6.536;2022-08-19T07:53:53;100698.50;;;14.55;100.00
64354;BME280;50681;53.334;-6.536;2022-08-19T07:56:20;100700.72;;;14.85;100.00
64354;BME280;50681;53.334;-6.536;2022-08-19T07:58:48;100694.53;;;15.02;100.00
64354;BME280;50681;53.334;-6.536;2022-08-19T08:01:17;100682.59;;;15.21;100.00
64354;BME280;50681;53.334;-6.536;2022-08-19T08:03:43;100679.75;;;15.61;100.00
64354;BME280;50681;53.334;-6.536;2022-08-19T08:06:28;100702.16;;;15.93;100.00
64354;BME280;50681;53.334;-6.536;2022-08-19T08:09:14;100684.38;;;16.05;100.00
64354;BME280;50681;53.334;-6.536;2022-08-19T08:12:02;100707.88;;;16.27;100.00
64354;BME280;50681;53.334;-6.536;2022-08-19T08:14:40;100693.16;;;16.19;100.00
64354;BME280;50681;53.334;-6.536;2022-08-19T08:17:06;100710.03;;;16.60;100.00
64354;BME280;50681;53.334;-6.536;2022-08-19T08:19:32;100703.13;;;16.63;100.00
64354;BME280;50681;53.334;-6.536;2022-08-19T08:21:59;100688.38;;;16.64;100.00
64354;BME280;50681;53.334;-6.536;2022-08-19T08:24:27;100697.22;;;16.90;100.00
64354;BME280;50681;53.334;-6.536;2022-08-19T08:26:52;100699.78;;;17.04;100.00
64354;BME280;50681;53.334;-6.536;2022-08-19T08:29:18;100700.06;;;17.33;100.00
64354;BME280;50681;53.334;-6.536;2022-08-19T08:31:45;100710.00;;;17.59;100.00
64354;BME280;50681;53.334;-6.536;2022-08-19T08:34:13;100716.34;;;17.72;100.00
64354;BME280;50681;53.334;-6.536;2022-08-19T08:36:44;100709.19;;;17.80;100.00
64354;BME280;50681;53.334;-6.536;2022-08-19T08:39:16;100699.59;;;17.73;100.00
64354;BME280;50681;53.334;-6.536;2022-08-19T08:42:07;100708.06;;;17.38;100.00
64354;BME280;50681;53.334;-6.536;2022-08-19T08:47:04;100699.59;;;17.10;100.00
64354;BME280;50681;53.334;-6.536;2022-08-19T08:52:27;100719.06;;;16.90;100.00
64354;BME280;50681;53.334;-6.536;2022-08-19T08:54:55;100719.41;;;16.80;100.00
64354;BME280;50681;53.334;-6.536;2022-08-19T08:57:37;100694.69;;;16.85;100.00
64354;BME280;50681;53.334;-6.536;2022-08-19T09:00:10;100705.66;;;16.77;100.00
64354;BME280;50681;53.334;-6.536;2022-08-19T09:02:37;100703.28;;;17.05;100.00
64354;BME280;50681;53.334;-6.536;2022-08-19T09:05:03;100721.03;;;17.41;100.00
64354;BME280;50681;53.334;-6.536;2022-08-19T09:07:50;100721.19;;;17.66;100.00
64354;BME280;50681;53.334;-6.536;2022-08-19T09:15:58;100713.94;;;17.70;100.00
64354;BME280;50681;53.334;-6.536;2022-08-19T09:21:08;100699.81;;;17.68;100.00
64354;BME280;50681;53.334;-6.536;2022-08-19T09:23:35;100702.38;;;17.86;100.00
64354;BME280;50681;53.334;-6.536;2022-08-19T09:26:00;100683.81;;;18.00;100.00
64354;BME280;50681;53.334;-6.536;2022-08-19T09:28:26;100707.63;;;18.00;100.00
64354;BME280;50681;53.334;-6.536;2022-08-19T09:30:52;100710.84;;;17.93;100.00
64354;BME280;50681;53.334;-6.536;2022-08-19T09:33:18;100684.19;;;17.90;100.00
64354;BME280;50681;53.334;-6.536;2022-08-19T09:35:43;100707.59;;;17.78;100.00
64354;BME280;50681;53.334;-6.536;2022-08-19T09:38:08;100698.72;;;17.82;100.00
64354;BME280;50681;53.334;-6.536;2022-08-19T09:40:34;100696.00;;;18.03;100.00
64354;BME280;50681;53.334;-6.536;2022-08-19T09:43:00;100672.97;;;17.70;100.00
64354;BME280;50681;53.334;-6.536;2022-08-19T09:45:28;100696.97;;;17.98;100.00
64354;BME280;50681;53.334;-6.536;2022-08-19T09:47:53;100705.91;;;18.07;100.00
64354;BME280;50681;53.334;-6.536;2022-08-19T09:50:19;100709.78;;;18.06;100.00
64354;BME280;50681;53.334;-6.536;2022-08-19T09:52:45;100680.16;;;17.75;100.00
64354;BME280;50681;53.334;-6.536;2022-08-19T09:55:11;100711.59;;;17.81;100.00
64354;BME280;50681;53.334;-6.536;2022-08-19T09:57:37;100682.81;;;17.84;100.00
64354;BME280;50681;53.334;-6.536;2022-08-19T10:00:04;100710.84;;;17.93;100.00
64354;BME280;50681;53.334;-6.536;2022-08-19T10:02:29;100698.06;;;17.85;100.00
64354;BME280;50681;53.334;-6.536;2022-08-19T10:04:55;100692.84;;;17.92;100.00
64354;BME280;50681;53.334;-6.536;2022-08-19T10:07:39;100703.72;;;17.80;100.00
64354;BME280;50681;53.334;-6.536;2022-08-19T10:10:06;100712.38;;;17.39;100.00
64354;BME280;50681;53.334;-6.536;2022-08-19T10:12:32;100716.44;;;17.03;100.00
64354;BME280;50681;53.334;-6.536;2022-08-19T10:14:58;100725.22;;;16.70;100.00
64354;BME280;50681;53.334;-6.536;2022-08-19T10:17:24;100715.09;;;16.79;100.00
64354;BME280;50681;53.334;-6.536;2022-08-19T10:19:50;100711.06;;;16.85;100.00
64354;BME280;50681;53.334;-6.536;2022-08-19T10:22:18;100699.97;;;16.99;100.00
64354;BME280;50681;53.334;-6.536;2022-08-19T10:24:44;100698.16;;;17.03;100.00
64354;BME280;50681;53.334;-6.536;2022-08-19T10:27:11;100692.94;;;17.19;100.00
64354;BME280;50681;53.334;-6.536;2022-08-19T10:29:38;100712.81;;;17.50;100.00
64354;BME280;50681;53.334;-6.536;2022-08-19T10:32:06;100701.03;;;17.58;100.00
64354;BME280;50681;53.334;-6.536;2022-08-19T10:34:32;100697.16;;;17.59;100.00
64354;BME280;50681;53.334;-6.536;2022-08-19T10:36:59;100711.88;;;17.88;100.00
64354;BME280;50681;53.334;-6.536;2022-08-19T10:39:26;100709.44;;;17.87;100.00
64354;BME280;50681;53.334;-6.536;2022-08-19T10:41:54;100700.69;;;17.81;100.00
64354;BME280;50681;53.334;-6.536;2022-08-19T10:44:21;100681.25;;;17.95;100.00
64354;BME280;50681;53.334;-6.536;2022-08-19T10:46:48;100691.34;;;18.03;100.00
64354;BME280;50681;53.334;-6.536;2022-08-19T10:49:14;100705.13;;;18.07;100.00
64354;BME280;50681;53.334;-6.536;2022-08-19T10:51:40;100687.66;;;18.33;100.00
64354;BME280;50681;53.334;-6.536;2022-08-19T10:54:25;100706.25;;;18.52;100.00
64354;BME280;50681;53.334;-6.536;2022-08-19T10:57:09;100691.84;;;18.18;100.00
64354;BME280;50681;53.334;-6.536;2022-08-19T10:59:36;100706.72;;;18.54;100.00
64354;BME280;50681;53.334;-6.536;2022-08-19T11:02:05;100700.00;;;18.51;100.00
64354;BME280;50681;53.334;-6.536;2022-08-19T11:04:31;100702.19;;;18.83;100.00
64354;BME280;50681;53.334;-6.536;2022-08-19T11:06:57;100703.78;;;18.72;100.00
64354;BME280;50681;53.334;-6.536;2022-08-19T11:09:24;100684.28;;;19.10;100.00
64354;BME280;50681;53.334;-6.536;2022-08-19T11:11:51;100686.34;;;19.01;100.00
64354;BME280;50681;53.334;-6.536;2022-08-19T11:14:18;100689.19;;;19.17;100.00
64354;BME280;50681;53.334;-6.536;2022-08-19T11:16:46;100688.75;;;19.15;100.00
64354;BME280;50681;53.334;-6.536;2022-08-19T11:19:13;100701.94;;;19.26;100.00
64354;BME280;50681;53.334;-6.536;2022-08-19T11:21:43;100692.25;;;19.16;100.00
64354;BME280;50681;53.334;-6.536;2022-08-19T11:24:20;100679.03;;;19.05;100.00
64354;BME280;50681;53.334;-6.536;2022-08-19T11:26:46;100691.22;;;19.33;100.00
64354;BME280;50681;53.334;-6.536;2022-08-19T11:29:15;100690.38;;;19.45;100.00
64354;BME280;50681;53.334;-6.536;2022-08-19T11:31:43;100681.59;;;19.51;100.00
64354;BME280;50681;53.334;-6.536;2022-08-19T11:34:13;100679.13;;;19.34;100.00
64354;BME280;50681;53.334;-6.536;2022-08-19T11:36:43;100691.94;;;19.58;100.00
64354;BME280;50681;53.334;-6.536;2022-08-19T11:39:11;100677.88;;;19.72;100.00
64354;BME280;50681;53.334;-6.536;2022-08-19T11:41:37;100676.28;;;19.71;100.00
64354;BME280;50681;53.334;-6.536;2022-08-19T11:44:03;100684.75;;;19.66;100.00
64354;BME280;50681;53.334;-6.536;2022-08-19T11:46:30;100671.09;;;19.53;100.00
64354;BME280;50681;53.334;-6.536;2022-08-19T11:48:57;100701.06;;;20.03;100.00
64354;BME280;50681;53.334;-6.536;2022-08-19T11:51:25;100687.56;;;19.69;100.00
64354;BME280;50681;53.334;-6.536;2022-08-19T11:53:52;100693.16;;;19.73;100.00
64354;BME280;50681;53.334;-6.536;2022-08-19T11:56:18;100664.13;;;19.44;100.00
64354;BME280;50681;53.334;-6.536;2022-08-19T11:58:44;100688.13;;;20.04;100.00
64354;BME280;50681;53.334;-6.536;2022-08-19T12:01:12;100684.50;;;20.00;100.00
64354;BME280;50681;53.334;-6.536;2022-08-19T12:03:40;100670.09;;;20.03;100.00
64354;BME280;50681;53.334;-6.536;2022-08-19T12:06:12;100668.44;;;19.86;100.00
64354;BME280;50681;53.334;-6.536;2022-08-19T12:08:40;100676.75;;;20.18;100.00
64354;BME280;50681;53.334;-6.536;2022-08-19T12:11:06;100686.34;;;19.95;100.00
64354;BME280;50681;53.334;-6.536;2022-08-19T12:13:35;100667.09;;;19.51;100.00
64354;BME280;50681;53.334;-6.536;2022-08-19T12:16:29;100664.88;;;19.28;100.00
64354;BME280;50681;53.334;-6.536;2022-08-19T12:18:53;100672.38;;;19.31;100.00
64354;BME280;50681;53.334;-6.536;2022-08-19T12:21:24;100668.66;;;19.23;100.00
64354;BME280;50681;53.334;-6.536;2022-08-19T12:23:52;100680.53;;;19.56;100.00
64354;BME280;50681;53.334;-6.536;2022-08-19T12:26:18;100672.88;;;19.62;100.00
64354;BME280;50681;53.334;-6.536;2022-08-19T12:28:44;100695.31;;;20.08;100.00
64354;BME280;50681;53.334;-6.536;2022-08-19T12:31:10;100675.50;;;19.99;100.00
64354;BME280;50681;53.334;-6.536;2022-08-19T12:33:38;100682.25;;;20.18;100.00
64354;BME280;50681;53.334;-6.536;2022-08-19T12:36:06;100661.00;;;19.86;100.00
64354;BME280;50681;53.334;-6.536;2022-08-19T12:38:32;100680.03;;;19.66;100.00
64354;BME280;50681;53.334;-6.536;2022-08-19T12:40:59;100676.34;;;19.46;100.00
64354;BME280;50681;53.334;-6.536;2022-08-19T12:43:25;100686.19;;;19.35;100.00
64354;BME280;50681;53.334;-6.536;2022-08-19T12:45:51;100680.75;;;19.63;100.00
64354;BME280;50681;53.334;-6.536;2022-08-19T12:48:16;100685.09;;;19.52;100.00
64354;BME280;50681;53.334;-6.536;2022-08-19T12:50:44;100687.66;;;19.32;100.00